Terminal Aerodrome Forecast
Issued by NWS

Home | Current Version | Previous Version | Text Only | Print | Product List | Glossary On
Versions: 1 2 3 4 5 6 7 8 9 10 11 12 13 14 15 16 17 18 19 20 21 22 23 24 25 26 27 28 29 30 31 32 33 34 35 36 37 38 39 40 41 42 43 44 45 46
000
FTUS42 KGSP 291738
TAFHKY
TAF
KHKY 291738Z 2918/3018 18005KT P6SM VCTS SCT020CB BKN035
      TEMPO 2918/2919 3SM SHRA BKN020 OVC040
     FM292000 VRB03KT P6SM BKN050
     FM300600 00000KT 5SM BR SCT250
     FM300800 00000KT 5SM BR SCT014
     FM301300 00000KT P6SM SCT014=

USA.gov is the U.S. government's official web portal to all federal, state and local government web resources and services.